Time;durP1;ratioP1;P1;durP2;ratioP2;P2;SDS_P1;SDS_P2;PMS_P1;PMS_P2;Temp;Humidity;BMP_temperature;BMP_pressure;BME280_temperature;BME280_humidity;BME280_pressure;Samples;Min_cycle;Max_cycle;Signal;HPM_P1;HPM_P2
2024/04/20 00:01:46;;;;;;;8.18;7.38;;;;;;;;;;5348708;26;20007;-94
2024/04/20 00:04:12;;;;;;;9.77;8.90;;;;;;;;;;5348396;26;20458;-95
2024/04/20 00:06:38;;;;;;;10.77;9.73;;;;;;;;;;5348686;26;20080;-93
2024/04/20 00:09:04;;;;;;;12.20;10.95;;;;;;;;;;5348565;26;20001;-94
2024/04/20 00:11:30;;;;;;;8.57;6.88;;;;;;;;;;5348215;26;20001;-93
2024/04/20 00:13:57;;;;;;;9.07;8.27;;;;;;;;;;5348873;26;20008;-92
2024/04/20 00:16:26;;;;;;;11.13;10.20;;;;;;;;;;5348852;26;20007;-93
2024/04/20 00:18:52;;;;;;;12.43;11.45;;;;;;;;;;5348668;26;20001;-94
2024/04/20 00:21:18;;;;;;;8.90;8.13;;;;;;;;;;5348562;26;20012;-93
2024/04/20 00:23:45;;;;;;;12.13;11.10;;;;;;;;;;5348447;26;19996;-93
2024/04/20 00:26:12;;;;;;;12.77;11.68;;;;;;;;;;5348382;26;20333;-94
2024/04/20 00:28:38;;;;;;;12.70;11.50;;;;;;;;;;5348691;26;20045;-94
2024/04/20 00:31:04;;;;;;;8.88;7.68;;;;;;;;;;5348585;26;20000;-95
2024/04/20 00:33:30;;;;;;;7.65;6.95;;;;;;;;;;5348363;26;19997;-95
2024/04/20 00:35:56;;;;;;;13.57;12.43;;;;;;;;;;5350544;26;20446;-94
2024/04/20 00:38:23;;;;;;;13.57;12.38;;;;;;;;;;5367122;26;20078;-93
2024/04/20 00:40:56;;;;;;;12.23;10.82;;;;;;;;;;5349841;26;20507;-94
2024/04/20 00:43:22;;;;;;;9.48;8.57;;;;;;;;;;5348672;26;20000;-93
2024/04/20 00:45:48;;;;;;;10.18;9.27;;;;;;;;;;5348133;26;19997;-93
2024/04/20 00:48:15;;;;;;;10.80;9.23;;;;;;;;;;5347778;26;20092;-94
2024/04/20 00:50:41;;;;;;;10.32;9.32;;;;;;;;;;5348045;26;20008;-93
2024/04/20 00:53:08;;;;;;;12.60;11.52;;;;;;;;;;5353338;26;20001;-93
2024/04/20 00:55:34;;;;;;;10.23;9.38;;;;;;;;;;5353751;26;20007;-93
2024/04/20 00:58:07;;;;;;;10.10;9.18;;;;;;;;;;5352112;26;20008;-93
2024/04/20 01:00:35;;;;;;;8.95;8.20;;;;;;;;;;5347943;26;20025;-95
2024/04/20 01:03:02;;;;;;;12.65;11.40;;;;;;;;;;5347922;26;20008;-92
2024/04/20 01:05:28;;;;;;;8.77;8.02;;;;;;;;;;5348134;26;20005;-93
2024/04/20 01:07:54;;;;;;;9.23;8.52;;;;;;;;;;5347648;26;19997;-93
2024/04/20 01:10:20;;;;;;;4.60;4.20;;;;;;;;;;5339512;26;20002;-92
2024/04/20 01:12:46;;;;;;;7.63;7.10;;;;;;;;;;5319017;26;20006;-93
2024/04/20 01:15:12;;;;;;;6.90;6.50;;;;;;;;;;5318749;26;20342;-90
2024/04/20 01:17:39;;;;;;;6.20;5.80;;;;;;;;;;5319119;26;20012;-94
2024/04/20 01:20:09;;;;;;;8.63;8.10;;;;;;;;;;5306167;27;20042;-94
2024/04/20 01:22:36;;;;;;;5.80;5.47;;;;;;;;;;5304046;26;20036;-93
2024/04/20 01:25:04;;;;;;;8.68;8.10;;;;;;;;;;5319038;26;20121;-94
2024/04/20 01:27:31;;;;;;;9.05;8.48;;;;;;;;;;5318890;26;20100;-93
2024/04/20 01:29:57;;;;;;;7.65;7.03;;;;;;;;;;5295945;27;20025;-93
2024/04/20 01:32:24;;;;;;;6.75;6.25;;;;;;;;;;5284726;27;20010;-93
2024/04/20 01:34:50;;;;;;;9.10;8.52;;;;;;;;;;5284338;27;20001;-94
2024/04/20 01:37:16;;;;;;;9.75;8.52;;;;;;;;;;5284547;27;20324;-94
2024/04/20 01:39:42;;;;;;;10.48;9.82;;;;;;;;;;5301179;26;20008;-93
2024/04/20 01:42:08;;;;;;;8.75;8.23;;;;;;;;;;5318670;26;20104;-94
2024/04/20 01:44:34;;;;;;;7.60;7.10;;;;;;;;;;5318904;26;20001;-94
2024/04/20 01:47:00;;;;;;;9.32;8.65;;;;;;;;;;5318990;26;20001;-94
2024/04/20 01:49:26;;;;;;;9.10;8.55;;;;;;;;;;5318511;26;20029;-93
2024/04/20 01:51:53;;;;;;;8.07;7.57;;;;;;;;;;5318296;26;20020;-95
2024/04/20 01:54:19;;;;;;;4.63;4.32;;;;;;;;;;5318363;26;20013;-94
2024/04/20 01:56:45;;;;;;;9.48;8.90;;;;;;;;;;5318387;26;20042;-94
2024/04/20 01:59:11;;;;;;;9.10;8.57;;;;;;;;;;5313806;26;20400;-94
2024/04/20 02:01:41;;;;;;;7.90;7.30;;;;;;;;;;5283494;27;19994;-95
2024/04/20 02:04:07;;;;;;;7.22;6.82;;;;;;;;;;5284427;27;19994;-95
2024/04/20 02:06:33;;;;;;;4.03;3.80;;;;;;;;;;5292289;26;20015;-94
2024/04/20 02:08:59;;;;;;;9.35;8.77;;;;;;;;;;5318335;26;20426;-92
2024/04/20 02:11:26;;;;;;;9.00;8.43;;;;;;;;;;5318782;26;19997;-94
2024/04/20 02:13:52;;;;;;;9.05;8.45;;;;;;;;;;5318618;26;20071;-94
2024/04/20 02:16:18;;;;;;;4.55;4.25;;;;;;;;;;5318852;26;20070;-94
2024/04/20 02:18:44;;;;;;;9.93;9.35;;;;;;;;;;5321482;26;19993;-92
2024/04/20 02:21:12;;;;;;;9.10;8.48;;;;;;;;;;5325273;26;20318;-91
2024/04/20 02:23:43;;;;;;;9.10;8.52;;;;;;;;;;5318646;26;20070;-93
2024/04/20 02:26:09;;;;;;;11.23;10.50;;;;;;;;;;5318017;26;20011;-93
2024/04/20 02:28:35;;;;;;;9.15;8.60;;;;;;;;;;5314182;26;20008;-95
2024/04/20 02:31:01;;;;;;;10.55;9.85;;;;;;;;;;5292608;26;20004;-93
2024/04/20 02:33:27;;;;;;;8.57;8.05;;;;;;;;;;5317815;26;19997;-93
2024/04/20 02:35:53;;;;;;;8.98;8.27;;;;;;;;;;5311749;27;20018;-94
2024/04/20 02:38:19;;;;;;;6.40;6.00;;;;;;;;;;5283395;27;20044;-94
2024/04/20 02:40:46;;;;;;;8.93;8.25;;;;;;;;;;5283441;27;20017;-94
2024/04/20 02:43:12;;;;;;;8.93;8.40;;;;;;;;;;5283382;27;20084;-94
2024/04/20 02:45:38;;;;;;;8.52;7.95;;;;;;;;;;5283244;27;20013;-93
2024/04/20 02:48:04;;;;;;;10.40;9.73;;;;;;;;;;5283391;27;20006;-94
2024/04/20 02:50:31;;;;;;;10.10;9.50;;;;;;;;;;5283394;27;19998;-94
2024/04/20 02:52:57;;;;;;;10.13;9.48;;;;;;;;;;5315250;26;20449;-93
2024/04/20 02:55:23;;;;;;;10.05;9.43;;;;;;;;;;5317353;26;20012;-94
2024/04/20 02:57:51;;;;;;;9.23;8.63;;;;;;;;;;5317458;26;20008;-94
2024/04/20 03:00:17;;;;;;;11.25;10.55;;;;;;;;;;5317251;26;20048;-94
2024/04/20 03:02:45;;;;;;;6.60;6.20;;;;;;;;;;5317510;26;20439;-95
2024/04/20 03:05:12;;;;;;;3.03;2.83;;;;;;;;;;5317451;26;20012;-92
2024/04/20 03:07:38;;;;;;;4.22;3.92;;;;;;;;;;5317019;26;20007;-94
2024/04/20 03:10:04;;;;;;;8.00;7.50;;;;;;;;;;5317158;26;20354;-94
2024/04/20 03:12:31;;;;;;;6.57;6.18;;;;;;;;;;5317054;26;19997;-94
2024/04/20 03:14:57;;;;;;;10.32;9.65;;;;;;;;;;5317099;26;20404;-93
2024/04/20 03:17:23;;;;;;;7.07;6.60;;;;;;;;;;5317171;26;20438;-94
2024/04/20 03:19:49;;;;;;;10.95;10.25;;;;;;;;;;5317066;26;20001;-94
2024/04/20 03:22:15;;;;;;;8.60;8.05;;;;;;;;;;5320306;26;20057;-93
2024/04/20 03:24:42;;;;;;;10.93;10.20;;;;;;;;;;5320263;26;20001;-93
2024/04/20 03:27:08;;;;;;;8.32;7.72;;;;;;;;;;5308111;27;20005;-95
2024/04/20 03:29:34;;;;;;;4.68;4.38;;;;;;;;;;5286200;27;20071;-93
2024/04/20 03:32:00;;;;;;;9.27;8.68;;;;;;;;;;5286298;27;20012;-93
2024/04/20 03:34:27;;;;;;;7.95;7.43;;;;;;;;;;5286090;27;20004;-93
2024/04/20 03:36:53;;;;;;;8.57;7.95;;;;;;;;;;5286129;27;20017;-93
2024/04/20 03:39:20;;;;;;;8.00;7.50;;;;;;;;;;5286224;27;20006;-94
2024/04/20 03:41:46;;;;;;;9.05;8.45;;;;;;;;;;5286233;27;19998;-93
2024/04/20 03:44:16;;;;;;;5.68;5.28;;;;;;;;;;5257903;27;19998;-92
2024/04/20 03:46:42;;;;;;;7.35;6.93;;;;;;;;;;5286056;27;19998;-93
2024/04/20 03:49:08;;;;;;;4.70;4.40;;;;;;;;;;5286316;27;20002;-93
2024/04/20 03:51:34;;;;;;;9.10;8.50;;;;;;;;;;5286381;27;19997;-92
2024/04/20 03:54:01;;;;;;;7.90;7.40;;;;;;;;;;5286316;27;20005;-91
2024/04/20 03:56:28;;;;;;;7.43;6.93;;;;;;;;;;5286397;27;20020;-93
2024/04/20 03:58:54;;;;;;;9.57;8.88;;;;;;;;;;5294996;27;20012;-91
2024/04/20 04:01:20;;;;;;;8.35;7.82;;;;;;;;;;5308686;27;20342;-93
2024/04/20 04:03:46;;;;;;;9.57;8.98;;;;;;;;;;5286230;27;19994;-93
2024/04/20 04:06:12;;;;;;;8.95;8.35;;;;;;;;;;5285185;27;20045;-94
2024/04/20 04:08:38;;;;;;;9.68;9.07;;;;;;;;;;5314165;27;20451;-93
2024/04/20 04:11:04;;;;;;;10.20;9.57;;;;;;;;;;5306592;27;20005;-92
2024/04/20 04:13:31;;;;;;;11.38;9.18;;;;;;;;;;5319829;26;20468;-93
2024/04/20 04:15:57;;;;;;;9.73;9.10;;;;;;;;;;5336314;26;20041;-93
2024/04/20 04:18:29;;;;;;;11.30;10.57;;;;;;;;;;5328191;26;20521;-93
2024/04/20 04:20:55;;;;;;;9.70;9.05;;;;;;;;;;5338792;26;20012;-94
2024/04/20 04:23:22;;;;;;;11.02;10.30;;;;;;;;;;5317803;26;20083;-93
2024/04/20 04:25:49;;;;;;;7.88;7.38;;;;;;;;;;5313738;27;19998;-94
2024/04/20 04:28:15;;;;;;;10.05;9.43;;;;;;;;;;5314562;27;20078;-92
2024/04/20 04:30:41;;;;;;;5.95;5.55;;;;;;;;;;5314104;27;20001;-93
2024/04/20 04:33:07;;;;;;;8.15;7.65;;;;;;;;;;5313544;27;20176;-92
2024/04/20 04:35:34;;;;;;;9.40;8.73;;;;;;;;;;5314099;27;20335;-92
2024/04/20 04:38:00;;;;;;;4.97;4.68;;;;;;;;;;5314850;27;20006;-90
2024/04/20 04:40:27;;;;;;;7.85;7.35;;;;;;;;;;5314905;27;20009;-92
2024/04/20 04:42:53;;;;;;;11.27;10.55;;;;;;;;;;5315294;27;19997;-91
2024/04/20 04:45:20;;;;;;;7.32;6.82;;;;;;;;;;5314903;27;20053;-91
2024/04/20 04:47:46;;;;;;;9.02;8.45;;;;;;;;;;5314016;27;20029;-90
2024/04/20 04:50:12;;;;;;;6.75;6.35;;;;;;;;;;5313398;27;19998;-92
2024/04/20 04:52:39;;;;;;;5.60;5.28;;;;;;;;;;5313592;27;20080;-91
2024/04/20 04:55:05;;;;;;;4.15;3.85;;;;;;;;;;5346416;26;20001;-92
2024/04/20 04:57:34;;;;;;;5.93;5.53;;;;;;;;;;5347334;26;20068;-90
2024/04/20 05:00:00;;;;;;;6.25;5.70;;;;;;;;;;5347044;26;20019;-92
2024/04/20 05:02:26;;;;;;;5.22;4.93;;;;;;;;;;5325081;26;20017;-93
2024/04/20 05:04:52;;;;;;;7.70;7.20;;;;;;;;;;5313218;27;20005;-94
2024/04/20 05:07:18;;;;;;;9.30;8.63;;;;;;;;;;5313576;27;19997;-91
2024/04/20 05:09:44;;;;;;;9.30;8.55;;;;;;;;;;5337801;26;20016;-91
2024/04/20 05:12:11;;;;;;;7.90;7.38;;;;;;;;;;5319074;26;20005;-91
2024/04/20 05:14:37;;;;;;;4.95;4.45;;;;;;;;;;5318947;26;20029;-94
2024/04/20 05:17:03;;;;;;;8.05;7.55;;;;;;;;;;5319235;26;20074;-92
2024/04/20 05:19:29;;;;;;;10.23;9.48;;;;;;;;;;5318825;26;20452;-93
2024/04/20 05:21:55;;;;;;;6.50;5.90;;;;;;;;;;5318995;26;20126;-93
2024/04/20 05:24:24;;;;;;;7.60;7.05;;;;;;;;;;5318717;26;20005;-91
2024/04/20 05:26:54;;;;;;;9.60;9.00;;;;;;;;;;5349245;26;20032;-93
2024/04/20 05:29:20;;;;;;;11.48;10.52;;;;;;;;;;5318569;26;20368;-92
2024/04/20 05:31:48;;;;;;;19.85;18.65;;;;;;;;;;5332258;26;20023;-93
2024/04/20 05:34:14;;;;;;;21.88;20.23;;;;;;;;;;5347404;26;20104;-93
2024/04/20 05:36:40;;;;;;;24.67;22.88;;;;;;;;;;5329642;26;20451;-92
2024/04/20 05:39:06;;;;;;;38.80;36.47;;;;;;;;;;5312860;27;19997;-92
2024/04/20 05:41:32;;;;;;;45.67;43.17;;;;;;;;;;5333626;26;20004;-91
2024/04/20 05:43:59;;;;;;;55.88;52.70;;;;;;;;;;5316048;26;19997;-92
2024/04/20 05:46:26;;;;;;;50.05;47.03;;;;;;;;;;5312574;27;20001;-93
2024/04/20 05:48:53;;;;;;;51.30;48.25;;;;;;;;;;5312263;27;19998;-92
2024/04/20 05:51:19;;;;;;;71.97;68.03;;;;;;;;;;5314395;26;20002;-93
2024/04/20 05:53:46;;;;;;;75.78;71.47;;;;;;;;;;5312600;27;20001;-93
2024/04/20 05:56:12;;;;;;;68.95;65.05;;;;;;;;;;5312322;27;20030;-91
2024/04/20 05:58:41;;;;;;;73.53;69.38;;;;;;;;;;5312129;27;20011;-90
2024/04/20 06:01:08;;;;;;;78.68;74.30;;;;;;;;;;5314093;26;20076;-90
2024/04/20 06:03:34;;;;;;;69.50;65.68;;;;;;;;;;5312108;27;20013;-90
2024/04/20 06:06:00;;;;;;;83.88;79.28;;;;;;;;;;5312216;27;20021;-90
2024/04/20 06:08:27;;;;;;;76.78;72.32;;;;;;;;;;5317897;26;20001;-92
2024/04/20 06:10:54;;;;;;;83.25;78.57;;;;;;;;;;5328503;26;20001;-90
2024/04/20 06:13:20;;;;;;;67.22;63.50;;;;;;;;;;5283832;27;20002;-92
2024/04/20 06:15:46;;;;;;;73.22;68.97;;;;;;;;;;5283772;27;20041;-89
2024/04/20 06:18:12;;;;;;;65.88;61.97;;;;;;;;;;5298760;26;20037;-89
2024/04/20 06:20:40;;;;;;;54.40;51.17;;;;;;;;;;5348437;26;19997;-90
2024/04/20 06:23:06;;;;;;;57.55;54.15;;;;;;;;;;5318012;26;19997;-91
2024/04/20 06:25:33;;;;;;;63.45;59.75;;;;;;;;;;5317785;26;19997;-92
2024/04/20 06:27:59;;;;;;;71.60;67.30;;;;;;;;;;5307905;27;20390;-92
2024/04/20 06:30:25;;;;;;;69.57;65.47;;;;;;;;;;5283898;27;19998;-92
2024/04/20 06:32:56;;;;;;;62.03;58.42;;;;;;;;;;5283986;27;20002;-91
2024/04/20 06:35:25;;;;;;;62.35;58.75;;;;;;;;;;5283269;27;20075;-92
2024/04/20 06:37:51;;;;;;;55.00;51.83;;;;;;;;;;5283694;27;20012;-92
2024/04/20 06:40:28;;;;;;;47.58;44.50;;;;;;;;;;5283694;27;19998;-90
2024/04/20 06:43:42;;;;;;;52.03;49.03;;;;;;;;;;5284476;27;20013;-93
2024/04/20 06:45:46;;;;;;;58.03;54.58;;;;;;;;;;5301774;26;20009;-89
2024/04/20 06:48:13;;;;;;;56.88;53.47;;;;;;;;;;5314047;27;19997;-91
2024/04/20 06:50:39;;;;;;;62.70;59.08;;;;;;;;;;5311877;26;20001;-92
2024/04/20 06:53:06;;;;;;;63.13;59.33;;;;;;;;;;5318125;26;20001;-91
2024/04/20 06:55:32;;;;;;;54.80;51.60;;;;;;;;;;5319870;26;20323;-92
2024/04/20 06:57:58;;;;;;;53.95;50.78;;;;;;;;;;5321315;26;20012;-92
2024/04/20 07:00:24;;;;;;;61.13;57.50;;;;;;;;;;5321203;26;20078;-91
2024/04/20 07:02:50;;;;;;;53.85;50.75;;;;;;;;;;5321051;26;20047;-92
2024/04/20 07:05:16;;;;;;;42.17;39.70;;;;;;;;;;5321418;26;20000;-91
2024/04/20 07:07:43;;;;;;;31.77;30.00;;;;;;;;;;5321362;26;20001;-92
2024/04/20 07:12:53;;;;;;;22.00;20.80;;;;;;;;;;5317045;27;20029;-90
2024/04/20 07:15:19;;;;;;;20.40;19.25;;;;;;;;;;5315268;27;20013;-92
2024/04/20 07:17:47;;;;;;;18.92;17.77;;;;;;;;;;5315272;27;20338;-92
2024/04/20 07:20:14;;;;;;;19.23;17.40;;;;;;;;;;5315297;27;20009;-90
2024/04/20 07:22:40;;;;;;;19.45;18.42;;;;;;;;;;5321646;27;19993;-89
2024/04/20 07:25:07;;;;;;;18.27;17.08;;;;;;;;;;5334894;26;20026;-92
2024/04/20 07:27:34;;;;;;;19.92;18.77;;;;;;;;;;5322285;27;20005;-92
2024/04/20 07:30:00;;;;;;;23.30;22.00;;;;;;;;;;5314826;26;20001;-92
2024/04/20 07:32:26;;;;;;;29.60;27.85;;;;;;;;;;5314807;26;19998;-93
2024/04/20 07:34:52;;;;;;;30.33;28.63;;;;;;;;;;5314684;26;20015;-90
2024/04/20 07:37:18;;;;;;;33.95;32.05;;;;;;;;;;5314739;26;20009;-92
2024/04/20 07:39:46;;;;;;;28.55;26.95;;;;;;;;;;5316671;26;20005;-92
2024/04/20 07:42:12;;;;;;;28.90;27.30;;;;;;;;;;5316083;26;20002;-91
2024/04/20 07:44:38;;;;;;;27.83;26.15;;;;;;;;;;5315082;26;20011;-91
2024/04/20 07:47:04;;;;;;;35.42;33.42;;;;;;;;;;5314399;26;20010;-91
2024/04/20 07:49:33;;;;;;;37.38;35.30;;;;;;;;;;5314651;26;19997;-91
2024/04/20 07:52:01;;;;;;;41.63;39.33;;;;;;;;;;5314506;26;20058;-91
2024/04/20 07:54:30;;;;;;;43.22;40.72;;;;;;;;;;5328677;26;20002;-91
2024/04/20 07:56:56;;;;;;;43.42;40.92;;;;;;;;;;5341705;26;19997;-90
2024/04/20 07:59:22;;;;;;;42.88;40.47;;;;;;;;;;5315436;26;20002;-92
2024/04/20 08:01:55;;;;;;;41.60;39.25;;;;;;;;;;5316088;27;19996;-88
2024/04/20 08:04:22;;;;;;;36.90;34.80;;;;;;;;;;5336237;26;20013;-92
2024/04/20 08:06:51;;;;;;;45.60;43.00;;;;;;;;;;5349809;26;20001;-91
2024/04/20 08:09:17;;;;;;;46.42;43.75;;;;;;;;;;5377164;21;20398;-91
2024/04/20 08:11:46;;;;;;;44.30;41.80;;;;;;;;;;5326815;26;20008;-94
2024/04/20 08:14:12;;;;;;;36.20;34.10;;;;;;;;;;5352888;26;20001;-92
2024/04/20 08:16:48;;;;;;;30.33;28.63;;;;;;;;;;5350002;26;19997;-92
2024/04/20 08:19:14;;;;;;;31.45;29.65;;;;;;;;;;5291582;26;20026;-91
2024/04/20 08:27:21;;;;;;;;;;;;;;;;;;;;;
2024/04/20 08:30:17;;;;;;;18.23;17.13;;;;;;;;;;5362227;26;19996;-95
2024/04/20 08:33:25;;;;;;;19.02;17.92;;;;;;;;;;5359580;26;20065;-91
2024/04/20 08:36:36;;;;;;;20.05;18.95;;;;;;;;;;5334169;26;19993;-91
2024/04/20 08:39:48;;;;;;;32.50;30.63;;;;;;;;;;5331598;26;20013;-90
2024/04/20 09:05:40;;;;;;;75.97;71.68;;;;;;;;;;5260767;27;19999;-88
2024/04/20 09:08:10;;;;;;;89.50;84.18;;;;;;;;;;5253619;27;20002;-88
2024/04/20 09:13:36;;;;;;;85.10;79.97;;;;;;;;;;5289914;26;20006;-89
2024/04/20 09:16:08;;;;;;;79.20;74.63;;;;;;;;;;5390973;26;20007;-89
2024/04/20 09:18:47;;;;;;;86.75;81.70;;;;;;;;;;5391224;26;20008;-89
2024/04/20 09:21:30;;;;;;;68.20;64.25;;;;;;;;;;5396701;26;20046;-89
2024/04/20 09:24:27;;;;;;;75.25;70.97;;;;;;;;;;5315500;26;20000;-88
2024/04/20 09:41:11;;;;;;;67.88;63.83;;;;;;;;;;5323063;26;20002;-89
2024/04/20 09:46:34;;;;;;;80.22;75.70;;;;;;;;;;5963122;21;20016;-92
2024/04/20 10:34:37;;;;;;;65.47;61.65;;;;;;;;;;5226638;26;20455;-95
2024/04/20 10:37:09;;;;;;;73.43;68.85;;;;;;;;;;5325956;26;20047;-93
2024/04/20 10:46:15;;;;;;;46.90;44.25;;;;;;;;;;5223059;27;20051;-90
2024/04/20 10:48:59;;;;;;;56.38;53.17;;;;;;;;;;5221579;27;20014;-92
2024/04/20 10:51:27;;;;;;;59.65;56.38;;;;;;;;;;5224776;27;20000;-94
2024/04/20 10:59:36;;;;;;;75.53;70.63;;;;;;;;;;5383942;21;20070;-91
2024/04/20 11:02:02;;;;;;;63.53;59.58;;;;;;;;;;5325000;26;20008;-91
2024/04/20 11:04:31;;;;;;;62.78;59.13;;;;;;;;;;5412265;21;20006;-90
2024/04/20 11:10:01;;;;;;;52.67;49.55;;;;;;;;;;5322484;27;20045;-93
2024/04/20 11:12:36;;;;;;;42.05;39.60;;;;;;;;;;5307382;27;20011;-92
2024/04/20 11:15:11;;;;;;;34.75;32.67;;;;;;;;;;5319909;27;20001;-93
2024/04/20 11:17:42;;;;;;;42.65;40.22;;;;;;;;;;5425184;21;20055;-92
2024/04/20 11:20:08;;;;;;;31.38;29.58;;;;;;;;;;5328049;26;20085;-92
2024/04/20 11:22:35;;;;;;;35.67;33.58;;;;;;;;;;5327908;26;20011;-92
2024/04/20 11:25:10;;;;;;;34.95;32.97;;;;;;;;;;5326502;26;20000;-93
2024/04/20 11:27:36;;;;;;;36.60;34.58;;;;;;;;;;5325641;26;20005;-91
2024/04/20 11:30:07;;;;;;;45.60;43.03;;;;;;;;;;5324661;26;20012;-89
2024/04/20 11:32:46;;;;;;;55.35;52.17;;;;;;;;;;5321175;26;20049;-96
2024/04/20 11:35:16;;;;;;;62.58;58.95;;;;;;;;;;5320975;27;19997;-92
2024/04/20 11:37:46;;;;;;;63.95;60.22;;;;;;;;;;5320335;27;20002;-89
2024/04/20 11:40:12;;;;;;;67.78;63.83;;;;;;;;;;5316961;27;20012;-88
2024/04/20 11:42:43;;;;;;;67.85;63.58;;;;;;;;;;5284845;27;20002;-88
2024/04/20 11:45:16;;;;;;;67.88;63.90;;;;;;;;;;5285125;27;19998;-91
2024/04/20 11:47:45;;;;;;;68.22;64.30;;;;;;;;;;5285219;27;20010;-93
2024/04/20 11:50:15;;;;;;;62.78;59.20;;;;;;;;;;5282587;27;20005;-92
2024/04/20 11:55:30;;;;;;;48.95;46.30;;;;;;;;;;5351639;26;20123;-90
2024/04/20 11:58:32;;;;;;;54.90;51.67;;;;;;;;;;5320122;26;20070;-94
2024/04/20 12:01:20;;;;;;;39.53;37.05;;;;;;;;;;5281355;27;19994;-94
2024/04/20 12:03:50;;;;;;;41.58;39.28;;;;;;;;;;5235636;27;20009;-88
2024/04/20 12:06:20;;;;;;;38.00;35.70;;;;;;;;;;5297106;26;20342;-89
2024/04/20 12:11:32;;;;;;;39.30;36.60;;;;;;;;;;5317521;27;20045;-90
2024/04/20 12:14:01;;;;;;;41.65;39.30;;;;;;;;;;5315672;27;20001;-91
2024/04/20 12:16:29;;;;;;;37.25;35.22;;;;;;;;;;5285694;27;20002;-89
2024/04/20 12:28:05;;;;;;;;;;;;;;;;;;;;;
2024/04/20 12:30:31;;;;;;;36.25;34.25;;;;;;;;;;5213609;27;20015;-93
2024/04/20 12:33:13;;;;;;;50.22;47.33;;;;;;;;;;5199551;27;20000;-95
2024/04/20 12:35:42;;;;;;;63.40;59.90;;;;;;;;;;5218991;27;20007;-91
2024/04/20 12:38:12;;;;;;;45.92;43.28;;;;;;;;;;5224978;27;20066;-87
2024/04/20 12:40:44;;;;;;;53.65;50.75;;;;;;;;;;5293264;27;20054;-92
2024/04/20 12:43:22;;;;;;;59.97;56.60;;;;;;;;;;5293537;27;20005;-93
2024/04/20 12:55:43;;;;;;;72.45;68.38;;;;;;;;;;5285731;27;20002;-93
2024/04/20 12:58:20;;;;;;;67.43;63.72;;;;;;;;;;5287482;27;19998;-93
2024/04/20 13:01:04;;;;;;;72.47;68.35;;;;;;;;;;5289081;26;20026;-93
2024/04/20 13:09:37;;;;;;;63.63;60.03;;;;;;;;;;5404706;22;20004;-96
2024/04/20 13:12:15;;;;;;;57.65;54.45;;;;;;;;;;5356842;26;20004;-95
2024/04/20 13:21:00;;;;;;;51.63;48.47;;;;;;;;;;5372237;26;20027;-94
2024/04/20 13:23:26;;;;;;;68.80;64.88;;;;;;;;;;5357252;26;19996;-93
2024/04/20 13:31:26;;;;;;;62.83;59.30;;;;;;;;;;5714494;21;20001;-94
2024/04/20 13:33:55;;;;;;;62.88;59.30;;;;;;;;;;5357754;21;20021;-95
2024/04/20 13:36:39;;;;;;;48.97;46.28;;;;;;;;;;5320220;26;20019;-94
2024/04/20 13:48:03;;;;;;;58.53;55.23;;;;;;;;;;5353592;26;20011;-92
2024/04/20 13:50:29;;;;;;;59.65;56.33;;;;;;;;;;5322288;26;20259;-94
2024/04/20 13:53:23;;;;;;;68.35;64.57;;;;;;;;;;5319598;26;19997;-92
2024/04/20 13:55:53;;;;;;;;;;;;;;;;;;5329107;26;20044;-92
2024/04/20 13:58:59;;;;;;;60.17;56.88;;;;;;;;;;5352912;26;20267;-91
2024/04/20 14:01:35;;;;;;;62.45;58.95;;;;;;;;;;5325499;26;20015;-92
2024/04/20 14:04:06;;;;;;;58.55;55.08;;;;;;;;;;5302188;27;20005;-94
2024/04/20 14:06:41;;;;;;;63.95;60.33;;;;;;;;;;5284577;27;19993;-95
2024/04/20 14:09:09;;;;;;;60.15;56.72;;;;;;;;;;5285006;27;20005;-92
2024/04/20 14:11:35;;;;;;;52.08;49.15;;;;;;;;;;5287037;27;20001;-95
2024/04/20 14:14:01;;;;;;;49.30;46.60;;;;;;;;;;5285562;26;19994;-93
2024/04/20 14:16:34;;;;;;;51.33;48.35;;;;;;;;;;5319562;26;19997;-94
2024/04/20 14:19:00;;;;;;;43.70;41.25;;;;;;;;;;5318961;26;19997;-93
2024/04/20 14:21:26;;;;;;;37.90;35.83;;;;;;;;;;5299567;27;20323;-90
2024/04/20 14:26:45;;;;;;;46.53;43.95;;;;;;;;;;5291501;27;20466;-93
2024/04/20 14:29:17;;;;;;;48.88;46.05;;;;;;;;;;5278508;27;20002;-90
2024/04/20 14:31:43;;;;;;;38.45;36.35;;;;;;;;;;5279517;27;20006;-93
2024/04/20 14:34:16;;;;;;;37.30;35.30;;;;;;;;;;5279803;27;20430;-93
2024/04/20 14:36:45;;;;;;;36.92;34.88;;;;;;;;;;5280906;27;20017;-92
2024/04/20 14:39:16;;;;;;;41.35;39.00;;;;;;;;;;5338137;21;20158;-94
2024/04/20 14:42:24;;;;;;;43.15;40.55;;;;;;;;;;5312516;27;20419;-96
2024/04/20 14:47:32;;;;;;;39.60;37.42;;;;;;;;;;5314080;27;20012;-91
2024/04/20 14:50:07;;;;;;;35.42;33.42;;;;;;;;;;5312400;27;20013;-93
2024/04/20 14:52:33;;;;;;;38.58;36.47;;;;;;;;;;5312341;27;20002;-91
2024/04/20 14:55:01;;;;;;;34.70;32.75;;;;;;;;;;5312411;27;19998;-92
2024/04/20 14:57:27;;;;;;;37.95;35.88;;;;;;;;;;5301490;27;20007;-91
2024/04/20 14:59:53;;;;;;;39.13;36.92;;;;;;;;;;5277850;27;19999;-90
2024/04/20 15:02:20;;;;;;;35.70;33.70;;;;;;;;;;5286839;27;20473;-92
2024/04/20 15:04:52;;;;;;;37.95;35.85;;;;;;;;;;5311524;27;20454;-91
2024/04/20 15:07:18;;;;;;;36.35;34.30;;;;;;;;;;5311736;27;19997;-93
2024/04/20 15:09:46;;;;;;;38.78;36.67;;;;;;;;;;5306127;27;19998;-91
2024/04/20 15:12:12;;;;;;;39.47;37.33;;;;;;;;;;5306316;27;20106;-91
2024/04/20 15:14:52;;;;;;;;;;;;;;;;;;;;;
2024/04/20 15:17:21;;;;;;;37.67;35.58;;;;;;;;;;5311392;27;20453;-91
2024/04/20 15:19:50;;;;;;;40.90;38.60;;;;;;;;;;5281099;27;20035;-90
2024/04/20 15:22:54;;;;;;;37.53;35.30;;;;;;;;;;5280220;27;20010;-91
2024/04/20 15:25:43;;;;;;;31.30;29.47;;;;;;;;;;5305525;27;20009;-91
2024/04/20 15:28:12;;;;;;;38.55;36.45;;;;;;;;;;5277168;27;20228;-91
2024/04/20 15:30:43;;;;;;;38.28;36.13;;;;;;;;;;5292368;27;20016;-91
2024/04/20 15:33:10;;;;;;;34.30;32.40;;;;;;;;;;5291635;27;20447;-93
2024/04/20 15:35:37;;;;;;;28.73;27.13;;;;;;;;;;5314412;27;20002;-91
2024/04/20 15:38:03;;;;;;;27.08;25.48;;;;;;;;;;5304863;27;20079;-91
2024/04/20 15:40:35;;;;;;;22.83;21.52;;;;;;;;;;5314131;27;20001;-91
2024/04/20 15:43:05;;;;;;;29.25;27.55;;;;;;;;;;5282249;27;20061;-91
2024/04/20 15:45:39;;;;;;;25.40;24.00;;;;;;;;;;5300965;27;20010;-93
2024/04/20 15:48:08;;;;;;;11.85;10.98;;;;;;;;;;5264083;27;20466;-93
2024/04/20 15:51:53;;;;;;;22.38;20.80;;;;;;;;;;5295464;27;20005;-93
2024/04/20 15:54:03;;;;;;;14.05;13.25;;;;;;;;;;5304476;27;20008;-94
2024/04/20 15:56:35;;;;;;;18.95;17.73;;;;;;;;;;5321090;27;20002;-95
2024/04/20 15:59:07;;;;;;;21.92;20.73;;;;;;;;;;5304100;27;20002;-93
2024/04/20 16:01:35;;;;;;;27.23;25.67;;;;;;;;;;5327297;27;20019;-96
2024/04/20 16:04:20;;;;;;;24.20;22.83;;;;;;;;;;5314257;27;20013;-93
2024/04/20 16:06:59;;;;;;;23.25;21.95;;;;;;;;;;5279080;26;19991;-91
2024/04/20 16:09:35;;;;;;;23.63;22.23;;;;;;;;;;5323056;26;20005;-90
2024/04/20 16:12:04;;;;;;;26.13;24.63;;;;;;;;;;5282108;27;20453;-92
2024/04/20 16:14:30;;;;;;;30.92;29.17;;;;;;;;;;5302401;27;20009;-92
2024/04/20 16:17:02;;;;;;;34.08;32.17;;;;;;;;;;5314436;27;20001;-89
2024/04/20 16:19:33;;;;;;;31.23;29.42;;;;;;;;;;5313682;27;20029;-90
2024/04/20 16:22:03;;;;;;;28.90;27.25;;;;;;;;;;5313808;27;20034;-90
2024/04/20 16:24:29;;;;;;;31.58;29.42;;;;;;;;;;5290114;27;20017;-91
2024/04/20 16:26:58;;;;;;;29.92;28.17;;;;;;;;;;5313475;27;20076;-92
2024/04/20 16:29:27;;;;;;;21.25;20.00;;;;;;;;;;5266234;27;20002;-92
2024/04/20 16:31:53;;;;;;;19.10;17.90;;;;;;;;;;5279834;27;20002;-90
2024/04/20 16:34:22;;;;;;;27.02;25.33;;;;;;;;;;5308951;27;20002;-91
2024/04/20 16:36:51;;;;;;;15.15;14.20;;;;;;;;;;5313815;27;20002;-91
2024/04/20 16:39:20;;;;;;;17.08;16.00;;;;;;;;;;5313612;27;20001;-92
2024/04/20 16:41:46;;;;;;;12.60;11.85;;;;;;;;;;5313649;27;20513;-89
2024/04/20 16:44:12;;;;;;;15.55;14.60;;;;;;;;;;5313787;27;20005;-93
2024/04/20 16:46:39;;;;;;;18.02;16.95;;;;;;;;;;5314294;27;19997;-92
2024/04/20 16:49:05;;;;;;;10.07;9.43;;;;;;;;;;5314415;27;20002;-91
2024/04/20 16:51:34;;;;;;;12.30;11.60;;;;;;;;;;5313897;27;20004;-91
2024/04/20 16:54:06;;;;;;;13.55;7.45;;;;;;;;;;5314893;27;20009;-91
2024/04/20 16:56:38;;;;;;;10.55;9.85;;;;;;;;;;5314938;27;20013;-91
2024/04/20 16:59:04;;;;;;;10.88;10.10;;;;;;;;;;5280367;27;20111;-90
2024/04/20 17:01:33;;;;;;;8.88;8.02;;;;;;;;;;5278810;27;20002;-91
2024/04/20 17:04:02;;;;;;;10.43;9.68;;;;;;;;;;5297541;27;20006;-90
2024/04/20 17:06:28;;;;;;;9.27;8.52;;;;;;;;;;5267166;27;20002;-92
2024/04/20 17:08:54;;;;;;;8.20;7.43;;;;;;;;;;5282592;27;20021;-92
2024/04/20 17:11:43;;;;;;;10.15;9.35;;;;;;;;;;5283998;27;20099;-95
2024/04/20 17:14:12;;;;;;;6.72;6.18;;;;;;;;;;5297002;27;20017;-92
2024/04/20 17:19:51;;;;;;;6.90;6.28;;;;;;;;;;5316155;27;20048;-94
2024/04/20 17:22:17;;;;;;;5.18;4.78;;;;;;;;;;5314221;27;20012;-92
2024/04/20 17:24:43;;;;;;;7.63;7.13;;;;;;;;;;5285964;27;20001;-93
2024/04/20 17:27:09;;;;;;;7.63;7.13;;;;;;;;;;5314642;27;20004;-92
2024/04/20 17:29:39;;;;;;;7.18;6.75;;;;;;;;;;5315125;27;20005;-92
2024/04/20 17:32:14;;;;;;;7.50;7.00;;;;;;;;;;5315762;27;20002;-94
2024/04/20 17:34:57;;;;;;;8.55;7.95;;;;;;;;;;5320471;27;20002;-95